This is the latest recevied weather packets stored in our database for station/object OK1UOJ. If no packets are shown the sender has not sent any weather packets the latest 1 day(s).
| Time | Temp. | Humidity | Pressure | Rain* | Wind** | Luminosity | Snow |
|---|---|---|---|---|---|---|---|
| 1777999692 | 20° C | 10% | - | - | 1.34 m/s, 129° | - | - |
| 1777999414 | 20° C | 97% | 1006.4 hPa | - | 1.34 m/s, 135° | - | - |
| 1777998858 | 20° C | 98% | 1006.4 hPa | - | 1.34 m/s, 135° | - | - |
| 1777998618 | 20.56° C | 93% | 1006.6 hPa | - | 1.34 m/s, 135° | - | - |
| 1777998580 | 20.56° C | 93% | 1006.6 hPa | - | 1.34 m/s, 135° | - | - |
| 1777998307 | 21.11° C | 71% | 1006.6 hPa | - | 1.34 m/s, 135° | - | - |
| 1777996911 | 22.78° C | 46% | 1006.8 hPa | - | 1.79 m/s, 168° | - | - |
| 1777996633 | 23.33° C | 46% | 1006.8 hPa | - | 2.24 m/s, 153° | - | - |
| 1777996355 | 23.33° C | 47% | 1006.8 hPa | - | 1.79 m/s, 155° | - | - |
| 1777996076 | 23.89° C | 46% | 1006.7 hPa | - | 1.79 m/s, 145° | - | - |
| 1777995246 | 23.89° C | 45% | 1006.7 hPa | - | 2.68 m/s, 153° | - | - |
| 1777995241 | 23.89° C | 45% | 1006.7 hPa | - | 2.68 m/s, 153° | - | - |
| 1777994968 | 24.44° C | 49% | 1006.7 hPa | - | 2.24 m/s, 138° | - | - |
| 1777994963 | 24.44° C | 49% | 1006.7 hPa | - | 2.24 m/s, 138° | - | - |
| 1777993576 | 24.44° C | 48% | 1006.7 hPa | - | 3.13 m/s, 132° | - | - |
| 1777993575 | 24.44° C | 48% | 1006.7 hPa | - | 3.13 m/s, 132° | - | - |
| 1777993570 | 24.44° C | 48% | 1006.7 hPa | - | 3.13 m/s, 132° | - | - |
| 1777993013 | 25° C | 58% | 1006.8 hPa | - | 3.13 m/s, 132° | - | - |
| 1777992735 | 25° C | 48% | 1006.8 hPa | - | 3.13 m/s, 132° | - | - |
| 1777992177 | 25° C | 53% | 1007 hPa | - | 3.13 m/s, 132° | - | - |
| 1777991063 | - | - | - | - | 2.68 m/s, 136° | - | - |
| 1777990790 | 25° C | 55% | 1007.2 hPa | - | 3.58 m/s, 139° | - | - |
| 1777990789 | 25° C | 55% | 1007.2 hPa | - | 3.58 m/s, 139° | - | - |
| 1777990785 | 25° C | 55% | 1007.2 hPa | - | 3.58 m/s, 139° | - | - |
| 1777990506 | 25° C | 59% | 1007.2 hPa | - | 3.13 m/s, 144° | - | - |
* Rain since midnight (hover to see other rain measurements)
** Current wind speed in m/s (hover to see current wind gust speed)